Time;durP1;ratioP1;P1;durP2;ratioP2;P2;SDS_P1;SDS_P2;PMS_P1;PMS_P2;Temp;Humidity;BMP_temperature;BMP_pressure;BME280_temperature;BME280_humidity;BME280_pressure;Samples;Min_cycle;Max_cycle;Signal;HPM_P1;HPM_P2
2022/12/10 00:01:42;;;;;;;50.10;25.80;;;-1.30;99.90;;;;;;5081635;28;20943;-74
2022/12/10 00:04:08;;;;;;;47.53;26.15;;;-1.30;99.90;;;;;;5088456;28;20406;-74
2022/12/10 00:06:35;;;;;;;50.05;25.48;;;-1.30;99.90;;;;;;5090059;28;20492;-75
2022/12/10 00:09:04;;;;;;;51.70;25.63;;;-1.20;99.90;;;;;;5088526;28;20434;-75
2022/12/10 00:11:30;;;;;;;49.20;25.48;;;-1.20;99.90;;;;;;5089815;28;20485;-75
2022/12/10 00:13:57;;;;;;;48.95;25.73;;;-1.20;99.90;;;;;;5080752;28;20399;-75
2022/12/10 00:16:24;;;;;;;48.33;25.25;;;-1.20;99.90;;;;;;5090118;28;20486;-74
2022/12/10 00:18:52;;;;;;;50.97;26.60;;;-1.10;99.90;;;;;;5089313;28;20394;-75
2022/12/10 00:21:20;;;;;;;49.13;26.30;;;-1.10;99.90;;;;;;5089838;28;20429;-74
2022/12/10 00:23:46;;;;;;;48.05;26.45;;;-1.10;99.90;;;;;;5088089;28;20405;-75
2022/12/10 00:26:18;;;;;;;50.53;25.80;;;-1.10;99.90;;;;;;5090091;28;20425;-75
2022/12/10 00:28:45;;;;;;;48.92;25.15;;;-1.10;99.90;;;;;;5089663;28;20418;-75
2022/12/10 00:31:13;;;;;;;50.03;25.05;;;-1.10;99.90;;;;;;5090362;28;20429;-75
2022/12/10 00:33:39;;;;;;;50.67;25.70;;;-1.10;99.90;;;;;;5088172;28;20402;-75
2022/12/10 00:36:17;;;;;;;51.58;26.85;;;-1.00;99.90;;;;;;5089575;28;20965;-75
2022/12/10 00:38:43;;;;;;;49.05;25.63;;;-1.00;99.90;;;;;;5083078;28;20407;-75
2022/12/10 00:41:10;;;;;;;48.47;26.50;;;-1.00;99.90;;;;;;5083002;28;20456;-73
2022/12/10 00:43:37;;;;;;;52.45;27.45;;;-0.90;99.90;;;;;;5088105;28;20524;-73
2022/12/10 00:46:02;;;;;;;51.97;27.02;;;-0.90;99.90;;;;;;5076387;28;20404;-73
2022/12/10 00:48:28;;;;;;;50.57;27.57;;;-0.90;99.90;;;;;;5076535;28;20433;-73
2022/12/10 00:51:02;;;;;;;51.27;27.20;;;-0.90;99.90;;;;;;5088939;28;20909;-73
2022/12/10 00:53:29;;;;;;;47.97;25.58;;;-0.90;99.90;;;;;;5084626;28;20939;-73
2022/12/10 00:55:55;;;;;;;54.78;27.30;;;-0.80;99.90;;;;;;5075006;28;20422;-73
2022/12/10 00:58:21;;;;;;;53.63;28.00;;;-0.80;99.90;;;;;;5088465;28;20398;-73
2022/12/10 01:00:47;;;;;;;50.27;28.03;;;-0.80;99.90;;;;;;5076346;28;20466;-73
2022/12/10 01:03:14;;;;;;;53.63;28.05;;;-0.80;99.90;;;;;;5084606;28;20412;-73
2022/12/10 01:05:39;;;;;;;55.13;28.67;;;-0.80;99.90;;;;;;5082822;28;20405;-73
2022/12/10 01:08:05;;;;;;;55.15;27.95;;;-0.80;99.90;;;;;;5069888;28;20428;-73
2022/12/10 01:10:31;;;;;;;52.00;28.37;;;-0.80;99.90;;;;;;5065792;28;20496;-73
2022/12/10 01:12:56;;;;;;;51.20;27.98;;;-0.80;99.90;;;;;;5088826;28;20405;-73
2022/12/10 01:15:22;;;;;;;57.60;28.90;;;-0.80;99.90;;;;;;5087055;28;20394;-73
2022/12/10 01:17:47;;;;;;;54.27;28.83;;;-0.90;99.90;;;;;;5075882;28;20413;-73
2022/12/10 01:20:13;;;;;;;56.20;29.27;;;-0.90;99.90;;;;;;5087683;28;20417;-73
2022/12/10 01:22:39;;;;;;;53.60;26.90;;;-0.90;99.90;;;;;;5076419;28;20398;-73
2022/12/10 01:25:05;;;;;;;57.30;29.20;;;-0.90;99.90;;;;;;5073816;28;20404;-73
2022/12/10 01:27:30;;;;;;;55.45;29.63;;;-1.00;99.90;;;;;;5080511;28;20871;-73
2022/12/10 01:29:56;;;;;;;57.25;29.42;;;-1.00;99.90;;;;;;5094842;28;20479;-73
2022/12/10 01:32:22;;;;;;;58.60;29.77;;;-1.00;99.90;;;;;;5088566;28;20397;-73
2022/12/10 01:34:48;;;;;;;55.47;29.60;;;-1.00;99.90;;;;;;5083668;28;20480;-73
2022/12/10 01:37:13;;;;;;;59.47;29.60;;;-1.00;99.90;;;;;;5087697;28;20394;-73
2022/12/10 01:39:39;;;;;;;57.33;28.98;;;-1.00;99.90;;;;;;5087690;28;20400;-73
2022/12/10 01:42:05;;;;;;;60.07;30.40;;;-1.10;99.90;;;;;;5076168;28;20433;-73
2022/12/10 01:44:30;;;;;;;61.05;30.85;;;-1.10;99.90;;;;;;5087545;28;20398;-73
2022/12/10 01:46:59;;;;;;;59.03;30.83;;;-1.10;99.90;;;;;;5086467;28;20781;-73
2022/12/10 01:49:38;;;;;;;57.17;29.88;;;-1.10;99.90;;;;;;5094457;28;20477;-73
2022/12/10 01:52:07;;;;;;;60.40;31.10;;;-1.10;99.90;;;;;;5077962;28;20398;-73
2022/12/10 01:54:35;;;;;;;59.22;30.88;;;-1.10;99.90;;;;;;5063957;28;21093;-73
2022/12/10 01:57:04;;;;;;;61.65;30.73;;;-1.10;99.90;;;;;;5069492;28;20416;-73
2022/12/10 01:59:33;;;;;;;57.97;29.33;;;-1.10;99.90;;;;;;5087633;28;20901;-73
2022/12/10 02:02:17;;;;;;;59.00;30.00;;;-1.20;99.90;;;;;;5083541;28;20557;-74
2022/12/10 02:05:51;;;;;;;60.97;30.67;;;-1.20;99.90;;;;;;5080320;28;20990;-74
2022/12/10 02:08:44;;;;;;;61.83;31.00;;;-1.20;99.90;;;;;;5038247;28;20488;-74
2022/12/10 02:11:55;;;;;;;61.50;30.70;;;-1.20;99.90;;;;;;5032936;28;20510;-75
2022/12/10 02:14:51;;;;;;;62.40;30.70;;;-1.20;99.90;;;;;;5018908;28;20916;-74
2022/12/10 02:17:28;;;;;;;63.78;31.50;;;-1.20;99.90;;;;;;5083134;28;20734;-74
2022/12/10 02:20:06;;;;;;;63.70;32.25;;;-1.20;99.90;;;;;;5083138;28;21106;-74
2022/12/10 02:22:48;;;;;;;67.95;31.65;;;-1.20;99.90;;;;;;5083202;28;20412;-74
2022/12/10 02:25:16;;;;;;;68.85;32.78;;;-1.20;99.90;;;;;;5070531;28;20400;-74
2022/12/10 02:28:21;;;;;;;66.55;32.58;;;-1.10;99.90;;;;;;5086084;28;20414;-74
2022/12/10 02:30:48;;;;;;;63.28;32.03;;;-1.10;99.90;;;;;;5087619;28;20410;-73
2022/12/10 02:33:15;;;;;;;64.90;31.92;;;-1.10;99.90;;;;;;5087291;28;20398;-74
2022/12/10 02:35:43;;;;;;;65.17;30.73;;;-1.10;99.90;;;;;;5087562;28;20432;-74
2022/12/10 02:38:17;;;;;;;66.50;32.17;;;-1.10;99.90;;;;;;5086311;28;20425;-74
2022/12/10 02:40:49;;;;;;;59.67;30.08;;;-1.10;99.90;;;;;;5067780;28;20399;-74
2022/12/10 02:43:16;;;;;;;68.00;32.63;;;-1.10;99.90;;;;;;5081708;28;20418;-74
2022/12/10 02:45:43;;;;;;;66.03;32.58;;;-1.10;99.90;;;;;;5078298;28;20414;-74
2022/12/10 02:48:10;;;;;;;64.63;33.85;;;-1.10;99.90;;;;;;5076233;28;20932;-74
2022/12/10 02:50:36;;;;;;;64.70;33.53;;;-1.10;99.90;;;;;;5076605;28;20402;-74
2022/12/10 02:53:02;;;;;;;66.10;33.57;;;-1.10;99.90;;;;;;5079126;28;20900;-74
2022/12/10 02:55:37;;;;;;;63.47;32.95;;;-1.20;99.90;;;;;;5078456;28;20411;-74
2022/12/10 02:58:30;;;;;;;64.70;33.95;;;-1.20;99.90;;;;;;5088987;28;20406;-74
2022/12/10 03:01:25;;;;;;;64.32;34.10;;;-1.30;99.90;;;;;;5089978;28;21167;-74
2022/12/10 03:04:10;;;;;;;66.97;35.28;;;-1.30;99.90;;;;;;5076536;28;20474;-74
2022/12/10 03:06:44;;;;;;;64.63;33.50;;;-1.30;99.90;;;;;;5070381;28;20477;-73
2022/12/10 03:09:30;;;;;;;64.43;34.25;;;-1.30;99.90;;;;;;5086366;28;20434;-73
2022/12/10 03:12:14;;;;;;;69.47;35.65;;;-1.30;99.90;;;;;;5091173;28;20421;-73
2022/12/10 03:14:41;;;;;;;69.10;35.20;;;-1.30;99.90;;;;;;5089764;28;20924;-74
2022/12/10 03:17:07;;;;;;;66.25;34.90;;;-1.30;99.90;;;;;;5102403;28;20403;-74
2022/12/10 03:19:40;;;;;;;67.03;35.50;;;-1.40;99.90;;;;;;5089950;28;20417;-74
2022/12/10 03:22:07;;;;;;;69.00;35.63;;;-1.40;99.90;;;;;;5087040;28;20415;-73
2022/12/10 03:24:35;;;;;;;70.32;34.67;;;-1.40;99.90;;;;;;5091116;28;20406;-74
2022/12/10 03:27:03;;;;;;;61.97;33.97;;;-1.40;99.90;;;;;;5089318;28;20410;-73
2022/12/10 03:29:33;;;;;;;68.43;34.80;;;-1.40;99.90;;;;;;5091217;28;20433;-73
2022/12/10 03:32:00;;;;;;;73.57;35.25;;;-1.40;99.90;;;;;;5076510;28;20905;-73
2022/12/10 03:34:26;;;;;;;70.47;34.80;;;-1.40;99.90;;;;;;5091030;28;20397;-74
2022/12/10 03:36:53;;;;;;;67.20;34.95;;;-1.40;99.90;;;;;;5074562;28;20396;-74
2022/12/10 03:39:19;;;;;;;70.55;35.92;;;-1.40;99.90;;;;;;5078275;28;20406;-72
2022/12/10 03:41:44;;;;;;;70.20;35.88;;;-1.40;99.90;;;;;;5088689;28;20782;-73
2022/12/10 03:44:10;;;;;;;68.40;34.22;;;-1.40;99.90;;;;;;5090521;28;20467;-73
2022/12/10 03:46:36;;;;;;;69.30;34.67;;;-1.40;99.90;;;;;;5075630;28;20507;-73
2022/12/10 03:49:02;;;;;;;72.23;36.73;;;-1.40;99.90;;;;;;5090340;28;20560;-73
2022/12/10 03:51:28;;;;;;;69.32;34.88;;;-1.40;99.90;;;;;;5076922;28;20406;-73
2022/12/10 03:53:54;;;;;;;73.93;35.15;;;-1.40;99.90;;;;;;5071100;28;20828;-73
2022/12/10 03:56:20;;;;;;;70.37;35.23;;;-1.40;99.90;;;;;;5081284;28;20469;-73
2022/12/10 03:58:46;;;;;;;73.63;36.22;;;-1.40;99.90;;;;;;5066995;28;20423;-72
2022/12/10 04:01:12;;;;;;;68.07;35.33;;;-1.50;99.90;;;;;;5079758;28;20408;-74
2022/12/10 04:03:41;;;;;;;72.68;36.53;;;-1.50;99.90;;;;;;5084567;28;20422;-74
2022/12/10 04:06:10;;;;;;;72.20;35.72;;;-1.50;99.90;;;;;;5088741;28;20410;-74
2022/12/10 04:08:36;;;;;;;72.67;37.07;;;-1.50;99.90;;;;;;5078725;28;20459;-74
2022/12/10 04:11:06;;;;;;;76.07;38.63;;;-1.50;99.90;;;;;;5085433;28;20467;-74
2022/12/10 04:16:27;;;;;;;78.33;38.97;;;-1.50;99.90;;;;;;5088254;28;20444;-74
2022/12/10 04:19:22;;;;;;;77.90;38.40;;;-1.50;99.90;;;;;;5088490;28;20455;-74
2022/12/10 04:27:25;;;;;;;77.53;38.15;;;-1.60;99.90;;;;;;5088289;28;20430;-74
2022/12/10 04:29:52;;;;;;;76.43;38.97;;;-1.50;99.90;;;;;;5075973;28;20403;-74
2022/12/10 04:32:18;;;;;;;79.03;38.50;;;-1.60;99.90;;;;;;5088344;28;20401;-74
2022/12/10 04:34:44;;;;;;;79.90;38.92;;;-1.60;99.90;;;;;;5089626;28;20409;-74
2022/12/10 04:37:11;;;;;;;77.88;38.95;;;-1.60;99.90;;;;;;5069833;28;20407;-74
2022/12/10 04:39:37;;;;;;;83.65;39.33;;;-1.60;99.90;;;;;;5082809;28;20425;-74
2022/12/10 04:42:04;;;;;;;83.63;39.03;;;-1.60;99.90;;;;;;5088847;28;20402;-74
2022/12/10 04:44:29;;;;;;;78.75;38.90;;;-1.60;99.90;;;;;;5071195;28;20406;-74
2022/12/10 04:46:55;;;;;;;82.30;39.63;;;-1.60;99.90;;;;;;5089096;28;20482;-74
2022/12/10 04:49:21;;;;;;;85.40;40.50;;;-1.60;99.90;;;;;;5088768;28;20433;-74
2022/12/10 04:51:47;;;;;;;82.35;39.55;;;-1.60;99.90;;;;;;5074890;28;20441;-74
2022/12/10 04:54:13;;;;;;;79.87;38.47;;;-1.60;99.90;;;;;;5087535;28;20394;-74
2022/12/10 04:56:39;;;;;;;81.25;38.75;;;-1.60;99.90;;;;;;5088155;28;20401;-74
2022/12/10 04:59:06;;;;;;;84.72;39.53;;;-1.60;99.90;;;;;;5077001;28;20771;-75
2022/12/10 05:01:32;;;;;;;86.25;39.70;;;-1.60;99.90;;;;;;5088408;28;20403;-74
2022/12/10 05:04:01;;;;;;;81.07;39.13;;;-1.60;99.90;;;;;;5088128;28;20413;-74
2022/12/10 05:06:26;;;;;;;92.25;41.60;;;-1.60;99.90;;;;;;5088445;28;20481;-74
2022/12/10 05:08:52;;;;;;;85.70;38.72;;;-1.60;99.90;;;;;;5074570;28;20518;-74
2022/12/10 05:11:20;;;;;;;86.60;40.38;;;-1.60;99.90;;;;;;5049151;28;20427;-74
2022/12/10 05:13:46;;;;;;;91.97;41.63;;;-1.60;99.90;;;;;;5068403;28;20478;-74
2022/12/10 05:16:15;;;;;;;88.78;40.88;;;-1.60;99.90;;;;;;5080333;28;20451;-74
2022/12/10 05:18:41;;;;;;;90.93;42.10;;;-1.50;99.90;;;;;;5075638;28;20408;-74
2022/12/10 05:21:12;;;;;;;92.77;41.90;;;-1.60;99.90;;;;;;5085052;28;20755;-74
2022/12/10 05:23:39;;;;;;;94.67;43.37;;;-1.50;99.90;;;;;;5088509;28;20432;-74
2022/12/10 05:26:08;;;;;;;91.10;43.08;;;-1.50;99.90;;;;;;5086872;28;20421;-74
2022/12/10 05:28:41;;;;;;;94.22;43.97;;;-1.50;99.90;;;;;;5075443;28;20423;-74
2022/12/10 05:31:24;;;;;;;95.82;43.40;;;-1.50;99.90;;;;;;5073352;28;20790;-74
2022/12/10 05:33:51;;;;;;;94.35;43.65;;;-1.50;99.90;;;;;;5087162;28;20479;-74
2022/12/10 05:36:19;;;;;;;91.57;43.25;;;-1.60;99.90;;;;;;5083760;28;20770;-74
2022/12/10 05:38:45;;;;;;;92.63;43.75;;;-1.60;99.90;;;;;;5086630;28;20398;-74
2022/12/10 05:41:17;;;;;;;94.35;43.40;;;-1.60;99.90;;;;;;5072075;28;20451;-74
2022/12/10 05:43:44;;;;;;;94.22;42.53;;;-1.60;99.90;;;;;;5069617;28;20403;-74
2022/12/10 05:46:12;;;;;;;94.67;43.83;;;-1.70;99.90;;;;;;5073171;28;20422;-74
2022/12/10 05:48:38;;;;;;;92.18;43.53;;;-1.60;99.90;;;;;;5077973;28;20430;-74
2022/12/10 05:51:06;;;;;;;90.88;42.17;;;-1.60;99.90;;;;;;5088062;28;20402;-74
2022/12/10 05:53:32;;;;;;;91.45;42.53;;;-1.70;99.90;;;;;;5086810;28;20409;-74
2022/12/10 05:56:07;;;;;;;91.15;41.17;;;-1.60;99.90;;;;;;5059319;28;20557;-74
2022/12/10 05:58:33;;;;;;;96.32;43.75;;;-1.60;99.90;;;;;;5070733;28;20443;-74
2022/12/10 06:00:59;;;;;;;98.03;43.42;;;-1.70;99.90;;;;;;5085907;28;20417;-74
2022/12/10 06:03:27;;;;;;;98.82;44.60;;;-1.70;99.90;;;;;;5087951;28;20447;-74
2022/12/10 06:05:53;;;;;;;94.87;43.23;;;-1.60;99.90;;;;;;5072333;28;20511;-74
2022/12/10 06:08:19;;;;;;;93.40;43.00;;;-1.60;99.90;;;;;;5082373;28;20503;-74
2022/12/10 06:10:44;;;;;;;101.23;43.87;;;-1.60;99.90;;;;;;5087728;28;20406;-74
2022/12/10 06:13:10;;;;;;;101.03;43.30;;;-1.60;99.90;;;;;;5081637;28;21038;-74
2022/12/10 06:15:39;;;;;;;94.18;42.22;;;-1.60;99.90;;;;;;5081027;28;20475;-74
2022/12/10 06:18:06;;;;;;;97.85;44.00;;;-1.50;99.90;;;;;;5083311;28;20436;-74
2022/12/10 06:20:31;;;;;;;96.30;44.17;;;-1.50;99.90;;;;;;5076787;28;20408;-74
2022/12/10 06:22:57;;;;;;;97.13;43.95;;;-1.50;99.90;;;;;;5074092;28;20462;-74
2022/12/10 06:25:23;;;;;;;94.15;43.65;;;-1.40;99.90;;;;;;5086358;28;20467;-74
2022/12/10 06:27:48;;;;;;;95.22;43.30;;;-1.40;99.90;;;;;;5082910;28;20466;-74
2022/12/10 06:30:14;;;;;;;91.43;42.20;;;-1.40;99.90;;;;;;5078082;28;20414;-74
2022/12/10 06:32:42;;;;;;;91.13;42.38;;;-1.40;99.90;;;;;;5082278;28;20411;-74
2022/12/10 06:35:09;;;;;;;91.68;41.78;;;-1.40;99.90;;;;;;5076793;28;20410;-74
2022/12/10 06:37:34;;;;;;;91.50;41.53;;;-1.40;99.90;;;;;;5073941;28;20485;-74
2022/12/10 06:40:00;;;;;;;91.63;42.83;;;-1.30;99.90;;;;;;5072508;28;21011;-74
2022/12/10 06:42:25;;;;;;;90.30;42.55;;;-1.30;99.90;;;;;;5087643;28;20458;-74
2022/12/10 06:44:51;;;;;;;99.17;43.13;;;-1.40;99.90;;;;;;5076540;28;20411;-74
2022/12/10 06:47:17;;;;;;;93.68;42.50;;;-1.30;99.90;;;;;;5085971;28;20923;-74
2022/12/10 06:49:42;;;;;;;94.07;43.40;;;-1.30;99.90;;;;;;5087394;28;20426;-74
2022/12/10 06:52:08;;;;;;;92.53;44.00;;;-1.30;99.90;;;;;;5071691;28;20400;-74
2022/12/10 06:54:33;;;;;;;95.70;44.50;;;-1.30;99.90;;;;;;5058698;28;20404;-74
2022/12/10 06:56:59;;;;;;;99.20;45.13;;;-1.20;99.90;;;;;;5087035;28;20398;-74
2022/12/10 06:59:25;;;;;;;96.63;44.63;;;-1.20;99.90;;;;;;5087153;28;20394;-74
2022/12/10 07:01:51;;;;;;;97.30;43.63;;;-1.20;99.90;;;;;;5085980;28;20414;-74
2022/12/10 07:04:16;;;;;;;95.90;45.60;;;-1.20;99.90;;;;;;5086060;28;20398;-74
2022/12/10 07:06:43;;;;;;;95.50;44.13;;;-1.20;99.90;;;;;;5087120;28;20402;-74
2022/12/10 07:09:09;;;;;;;97.28;45.30;;;-1.10;99.90;;;;;;5087157;28;20504;-74
2022/12/10 07:11:35;;;;;;;98.82;45.20;;;-1.10;99.90;;;;;;5086715;28;20429;-74
2022/12/10 07:14:01;;;;;;;97.55;44.40;;;-1.10;99.90;;;;;;5069493;28;20417;-74
2022/12/10 07:16:29;;;;;;;96.68;43.90;;;-1.10;99.90;;;;;;5085091;28;20409;-74
2022/12/10 07:18:57;;;;;;;93.45;43.45;;;-1.10;99.90;;;;;;5085172;28;20402;-74
2022/12/10 07:21:26;;;;;;;90.17;42.30;;;-1.10;99.90;;;;;;5075254;28;20641;-74
2022/12/10 07:23:57;;;;;;;87.45;42.60;;;-1.20;99.90;;;;;;5085243;28;20410;-74
2022/12/10 07:26:25;;;;;;;98.95;44.15;;;-1.20;99.90;;;;;;5085596;28;20413;-74
2022/12/10 07:28:51;;;;;;;90.85;42.90;;;-1.20;99.90;;;;;;5081642;28;20934;-74
2022/12/10 07:31:16;;;;;;;91.72;43.33;;;-1.30;99.90;;;;;;5076903;28;20406;-74
2022/12/10 07:33:42;;;;;;;94.40;43.97;;;-1.30;99.90;;;;;;5083010;28;20817;-74
2022/12/10 07:36:10;;;;;;;91.20;43.30;;;-1.30;99.90;;;;;;5073521;28;20441;-74
2022/12/10 07:38:36;;;;;;;94.70;44.75;;;-1.40;99.90;;;;;;5072003;28;20405;-74
2022/12/10 07:41:08;;;;;;;98.43;44.22;;;-1.40;99.90;;;;;;5085652;28;20455;-72
2022/12/10 07:43:39;;;;;;;94.63;44.40;;;-1.40;99.90;;;;;;5086607;28;20404;-73
2022/12/10 07:46:05;;;;;;;98.00;44.75;;;-1.40;99.90;;;;;;5085919;28;20400;-73
2022/12/10 07:48:31;;;;;;;99.20;44.47;;;-1.40;99.90;;;;;;5073065;28;20424;-73
2022/12/10 07:50:57;;;;;;;94.68;43.60;;;-1.40;99.90;;;;;;5070360;28;20399;-73
2022/12/10 07:53:23;;;;;;;95.30;44.63;;;-1.40;99.90;;;;;;5089684;28;20408;-73
2022/12/10 07:55:50;;;;;;;97.80;45.38;;;-1.40;99.90;;;;;;5088610;28;20518;-74
2022/12/10 07:58:15;;;;;;;98.32;45.03;;;-1.40;99.90;;;;;;5081401;28;20398;-73
2022/12/10 08:00:41;;;;;;;97.13;45.47;;;-1.40;99.90;;;;;;5080545;28;20449;-73
2022/12/10 08:03:06;;;;;;;98.20;45.50;;;-1.40;99.90;;;;;;5083254;28;20807;-73
2022/12/10 08:05:32;;;;;;;93.82;44.03;;;-1.40;99.90;;;;;;5077804;28;20431;-74
2022/12/10 08:07:58;;;;;;;99.95;45.13;;;-1.40;99.90;;;;;;5081474;28;20459;-73
2022/12/10 08:10:23;;;;;;;100.63;45.07;;;-1.40;99.90;;;;;;5064763;28;20402;-73
2022/12/10 08:12:49;;;;;;;100.82;46.38;;;-1.40;99.90;;;;;;5085598;28;20840;-74
2022/12/10 08:15:14;;;;;;;97.57;46.23;;;-1.50;99.90;;;;;;5089497;28;20401;-73
2022/12/10 08:17:40;;;;;;;101.67;46.13;;;-1.50;99.90;;;;;;5087830;28;20417;-74
2022/12/10 08:20:06;;;;;;;103.43;46.50;;;-1.50;99.90;;;;;;5080718;28;20422;-73
2022/12/10 08:22:34;;;;;;;102.93;47.50;;;-1.50;99.90;;;;;;5085424;28;20401;-73
2022/12/10 08:24:59;;;;;;;101.60;46.38;;;-1.50;99.90;;;;;;5084466;28;20440;-73
2022/12/10 08:27:25;;;;;;;103.88;46.88;;;-1.50;99.90;;;;;;5084245;28;21261;-73
2022/12/10 08:29:51;;;;;;;106.95;47.92;;;-1.50;99.90;;;;;;5084812;28;20428;-73
2022/12/10 08:32:16;;;;;;;100.30;47.28;;;-1.50;99.90;;;;;;5076941;28;20419;-74
2022/12/10 08:34:42;;;;;;;107.27;47.80;;;-1.50;99.90;;;;;;5071723;28;20411;-74
2022/12/10 08:37:08;;;;;;;95.70;44.88;;;-1.50;99.90;;;;;;5085720;28;20922;-74
2022/12/10 08:39:33;;;;;;;94.90;45.37;;;-1.50;99.90;;;;;;5073532;28;20412;-75
2022/12/10 08:41:59;;;;;;;97.53;45.97;;;-1.50;99.90;;;;;;5073297;28;20411;-74
2022/12/10 08:44:25;;;;;;;105.25;47.78;;;-1.50;99.90;;;;;;5073565;28;20414;-74
2022/12/10 08:46:52;;;;;;;101.60;47.38;;;-1.40;99.90;;;;;;5073893;28;20408;-75
2022/12/10 08:49:17;;;;;;;104.80;47.43;;;-1.40;99.90;;;;;;5084426;28;20462;-75
2022/12/10 08:51:43;;;;;;;95.23;46.50;;;-1.40;99.90;;;;;;5069429;28;21041;-74
2022/12/10 08:54:09;;;;;;;97.10;45.15;;;-1.30;99.90;;;;;;5061154;28;20422;-74
2022/12/10 08:56:36;;;;;;;98.53;45.17;;;-1.20;99.90;;;;;;5074495;28;21013;-74
2022/12/10 08:59:02;;;;;;;96.38;45.30;;;-1.10;99.90;;;;;;5071999;28;20408;-74
2022/12/10 09:01:28;;;;;;;95.13;44.67;;;-1.00;99.90;;;;;;5075744;28;20407;-75
2022/12/10 09:03:53;;;;;;;97.20;45.60;;;-0.90;99.90;;;;;;5063302;28;20433;-74
2022/12/10 09:06:21;;;;;;;96.30;43.70;;;-0.80;99.90;;;;;;5075154;28;20423;-74
2022/12/10 09:08:47;;;;;;;92.30;44.50;;;-0.60;99.90;;;;;;5086833;28;20434;-74
2022/12/10 09:11:19;;;;;;;89.68;43.45;;;-0.50;99.90;;;;;;5085465;28;20402;-75
2022/12/10 09:13:45;;;;;;;87.20;42.05;;;-0.40;99.90;;;;;;5071014;28;20434;-74
2022/12/10 09:16:11;;;;;;;87.15;42.17;;;-0.30;99.90;;;;;;5079786;28;20410;-74
2022/12/10 09:18:37;;;;;;;90.97;43.97;;;-0.20;99.90;;;;;;5076745;28;20452;-74
2022/12/10 09:21:12;;;;;;;87.53;43.73;;;-0.20;99.90;;;;;;5084604;28;20483;-74
2022/12/10 09:23:38;;;;;;;88.72;43.15;;;-0.10;99.90;;;;;;5077344;28;20422;-74
2022/12/10 09:26:09;;;;;;;91.50;44.03;;;-0.10;99.90;;;;;;5075514;28;20994;-74
2022/12/10 09:28:36;;;;;;;85.72;42.45;;;-0.10;99.90;;;;;;5086433;28;20430;-74
2022/12/10 09:31:03;;;;;;;92.60;44.22;;;-0.10;99.90;;;;;;5079166;28;20417;-74
2022/12/10 09:33:30;;;;;;;93.53;44.63;;;-0.20;99.90;;;;;;5077357;28;20449;-74
2022/12/10 09:35:56;;;;;;;93.75;45.50;;;-0.20;99.90;;;;;;5086373;28;20432;-74
2022/12/10 09:38:21;;;;;;;100.73;46.33;;;-0.30;99.90;;;;;;5088046;28;20398;-74
2022/12/10 09:41:10;;;;;;;92.47;44.40;;;-0.20;99.90;;;;;;5083915;28;20504;-74
2022/12/10 09:43:54;;;;;;;96.15;43.72;;;-0.30;99.90;;;;;;5078891;28;20426;-74
2022/12/10 09:46:33;;;;;;;94.75;45.83;;;-0.30;99.90;;;;;;5080321;28;20468;-74
2022/12/10 09:49:27;;;;;;;103.43;46.55;;;-0.40;99.90;;;;;;5084735;28;20426;-74
2022/12/10 09:52:00;;;;;;;99.68;44.90;;;-0.40;99.90;;;;;;5050658;28;20438;-74
2022/12/10 09:54:52;;;;;;;102.20;46.13;;;-0.40;99.90;;;;;;5087608;28;20409;-73
2022/12/10 09:57:30;;;;;;;103.17;46.10;;;-0.40;99.90;;;;;;5073381;28;20429;-74
2022/12/10 10:00:15;;;;;;;113.28;47.17;;;-0.40;99.90;;;;;;5080995;28;20460;-74
2022/12/10 10:02:41;;;;;;;109.30;46.28;;;-0.40;99.90;;;;;;5086146;28;20856;-74
2022/12/10 10:05:06;;;;;;;105.20;46.37;;;-0.40;99.90;;;;;;5075979;28;20403;-74
2022/12/10 10:07:36;;;;;;;111.10;47.10;;;-0.50;99.90;;;;;;5073384;28;21172;-74
2022/12/10 10:10:05;;;;;;;107.90;45.95;;;-0.50;99.90;;;;;;5077079;28;20479;-74
2022/12/10 10:12:34;;;;;;;110.28;47.13;;;-0.50;99.90;;;;;;5085369;28;20574;-74
2022/12/10 10:15:15;;;;;;;110.63;47.47;;;-0.40;99.90;;;;;;5082387;28;20423;-74
2022/12/10 10:17:45;;;;;;;106.78;47.45;;;-0.40;99.90;;;;;;5066284;28;20934;-74
2022/12/10 10:20:12;;;;;;;108.97;46.92;;;-0.40;99.90;;;;;;5076820;28;20435;-74
2022/12/10 10:22:39;;;;;;;109.85;47.20;;;-0.40;99.90;;;;;;5080416;28;20923;-74
2022/12/10 10:25:06;;;;;;;110.50;46.92;;;-0.40;99.90;;;;;;5073426;28;20404;-74
2022/12/10 10:27:33;;;;;;;110.90;48.08;;;-0.40;99.90;;;;;;5081645;28;20432;-73
2022/12/10 10:30:01;;;;;;;116.27;47.50;;;-0.40;99.90;;;;;;5080940;28;20958;-74
2022/12/10 10:32:47;;;;;;;110.00;48.08;;;-0.40;99.90;;;;;;5073893;28;20897;-74
2022/12/10 10:35:34;;;;;;;108.07;47.88;;;-0.40;99.90;;;;;;5079630;28;20422;-74
2022/12/10 10:38:23;;;;;;;115.47;47.78;;;-0.30;99.90;;;;;;5078068;28;20492;-74
2022/12/10 10:41:01;;;;;;;114.40;48.60;;;-0.30;99.90;;;;;;5075857;28;20468;-74
2022/12/10 10:43:54;;;;;;;115.75;50.10;;;-0.30;99.90;;;;;;5080695;28;20421;-74
2022/12/10 10:46:23;;;;;;;111.35;49.90;;;-0.30;99.90;;;;;;5079868;28;20879;-74
2022/12/10 10:48:50;;;;;;;114.10;49.78;;;-0.30;99.90;;;;;;5056472;28;20479;-74
2022/12/10 10:51:20;;;;;;;121.03;50.30;;;-0.20;99.90;;;;;;5082794;28;20404;-74
2022/12/10 10:53:51;;;;;;;120.15;50.50;;;-0.20;99.90;;;;;;5078767;28;20421;-74
2022/12/10 10:56:24;;;;;;;112.38;50.03;;;-0.20;99.90;;;;;;5086638;28;20873;-74
2022/12/10 10:58:56;;;;;;;117.30;50.30;;;-0.10;99.90;;;;;;5074951;28;20433;-74
2022/12/10 11:01:26;;;;;;;111.70;49.03;;;-0.10;99.90;;;;;;5086807;28;20480;-74
2022/12/10 11:03:57;;;;;;;113.40;48.40;;;-0.10;99.90;;;;;;5076301;28;20566;-74
2022/12/10 11:06:23;;;;;;;111.65;48.90;;;-0.10;99.90;;;;;;5079341;28;20442;-74
2022/12/10 11:08:53;;;;;;;114.80;50.30;;;-0.10;99.90;;;;;;5080663;28;20421;-74
2022/12/10 11:11:33;;;;;;;109.53;49.03;;;-0.10;99.90;;;;;;5086711;28;20410;-74
2022/12/10 11:14:26;;;;;;;111.97;48.58;;;-0.10;99.90;;;;;;5074942;28;20466;-74
2022/12/10 11:17:10;;;;;;;113.65;48.47;;;-0.10;99.90;;;;;;5095606;28;20414;-74
2022/12/10 11:19:56;;;;;;;117.25;50.85;;;-0.10;99.90;;;;;;5074538;28;20424;-74
2022/12/10 11:22:33;;;;;;;118.90;51.20;;;-0.10;99.90;;;;;;5040605;28;21094;-74
2022/12/10 11:25:00;;;;;;;118.57;50.20;;;0.00;99.90;;;;;;5085263;28;20582;-74
2022/12/10 11:27:54;;;;;;;116.18;50.60;;;0.00;99.90;;;;;;5087096;28;20918;-73
2022/12/10 11:30:26;;;;;;;111.30;48.72;;;0.00;99.90;;;;;;5077509;28;20973;-74
2022/12/10 11:33:12;;;;;;;111.80;48.63;;;0.10;99.90;;;;;;5084298;28;20830;-75
2022/12/10 11:35:56;;;;;;;106.90;46.53;;;0.00;99.90;;;;;;5080441;28;20429;-75
2022/12/10 11:38:27;;;;;;;107.63;47.00;;;0.10;99.90;;;;;;5076596;28;20431;-74
2022/12/10 11:41:01;;;;;;;107.03;46.70;;;0.10;99.90;;;;;;5061370;28;20491;-74
2022/12/10 11:43:59;;;;;;;109.55;46.65;;;0.10;99.90;;;;;;5089015;28;20892;-74
2022/12/10 11:46:46;;;;;;;108.93;46.23;;;0.10;99.90;;;;;;5081473;28;20427;-74
2022/12/10 11:49:20;;;;;;;104.90;45.40;;;0.20;99.90;;;;;;5078570;28;20422;-74
2022/12/10 11:52:00;;;;;;;103.35;46.28;;;0.20;99.90;;;;;;5085021;28;20408;-74
2022/12/10 11:54:32;;;;;;;109.65;48.08;;;0.20;99.90;;;;;;5079210;28;20433;-74
2022/12/10 11:57:49;;;;;;;109.95;47.80;;;0.20;99.90;;;;;;5076341;28;20538;-74
2022/12/10 12:00:27;;;;;;;100.75;46.17;;;0.20;99.90;;;;;;5042644;28;20414;-74
2022/12/10 12:02:55;;;;;;;104.63;46.35;;;0.20;99.90;;;;;;5068946;28;20502;-74
2022/12/10 12:05:52;;;;;;;101.15;45.33;;;0.20;99.90;;;;;;5075067;28;21068;-74
2022/12/10 12:08:34;;;;;;;95.27;43.73;;;0.20;99.90;;;;;;5082312;28;20515;-74
2022/12/10 12:11:15;;;;;;;98.72;44.80;;;0.20;99.90;;;;;;5083995;28;20402;-74
2022/12/10 12:14:01;;;;;;;104.05;46.17;;;0.10;99.90;;;;;;5083859;28;20433;-74
2022/12/10 12:16:43;;;;;;;106.55;47.05;;;0.10;99.90;;;;;;5077286;28;20513;-74
2022/12/10 12:19:17;;;;;;;108.43;45.67;;;0.10;99.90;;;;;;5080257;28;20468;-74
2022/12/10 12:21:45;;;;;;;108.30;46.22;;;0.20;99.90;;;;;;5079059;28;21052;-74
2022/12/10 12:24:28;;;;;;;106.97;45.67;;;0.10;99.90;;;;;;5084762;28;20944;-74
2022/12/10 12:27:05;;;;;;;106.10;46.03;;;0.10;99.90;;;;;;5088974;28;20865;-74
2022/12/10 12:29:36;;;;;;;100.88;43.22;;;0.10;99.90;;;;;;5073413;28;20430;-74
2022/12/10 12:32:03;;;;;;;104.25;43.97;;;0.10;99.90;;;;;;5069702;28;20410;-74
2022/12/10 12:34:44;;;;;;;104.15;43.13;;;0.10;99.90;;;;;;5072343;28;20423;-74
2022/12/10 12:37:14;;;;;;;103.70;44.42;;;0.10;99.90;;;;;;5087158;28;20505;-74
2022/12/10 12:39:50;;;;;;;103.43;45.10;;;0.10;99.90;;;;;;5078826;28;20459;-74
2022/12/10 12:42:43;;;;;;;113.28;46.25;;;0.10;99.90;;;;;;5062581;28;20418;-74
2022/12/10 12:45:39;;;;;;;105.18;45.53;;;0.10;99.90;;;;;;5081470;28;20438;-74
2022/12/10 12:48:41;;;;;;;105.80;44.95;;;0.10;99.90;;;;;;5082854;28;20484;-74
2022/12/10 12:51:19;;;;;;;97.30;44.42;;;0.10;99.90;;;;;;5079465;28;20954;-74
2022/12/10 12:53:44;;;;;;;91.03;40.33;;;0.10;99.90;;;;;;5086287;28;20459;-74